Time;durP1;ratioP1;P1;durP2;ratioP2;P2;SDS_P1;SDS_P2;PMS_P1;PMS_P2;Temp;Humidity;BMP_temperature;BMP_pressure;BME280_temperature;BME280_humidity;BME280_pressure;Samples;Min_cycle;Max_cycle;Signal;HPM_P1;HPM_P2
2023/01/05 00:00:42;;;;;;;;;;;;;;;19.27;63.46;99763.00;2082111;28;19920;-72
2023/01/05 00:01:45;;;;;;;;;;;;;;;19.27;63.47;99767.56;2081184;28;19921;-72
2023/01/05 00:02:45;;;;;;;;;;;;;;;19.26;63.33;99764.03;2081906;28;20006;-72
2023/01/05 00:03:47;;;;;;;;;;;;;;;19.26;63.59;99764.03;2081204;28;20622;-72
2023/01/05 00:04:49;;;;;;;;;;;;;;;19.26;63.25;99763.19;2082277;28;19920;-72
2023/01/05 00:05:49;;;;;;;;;;;;;;;19.25;63.48;99767.75;2080652;28;20556;-72
2023/01/05 00:06:51;;;;;;;;;;;;;;;19.25;63.23;99762.38;2081143;28;19928;-72
2023/01/05 00:07:52;;;;;;;;;;;;;;;19.24;63.14;99759.84;2079114;28;20439;-72
2023/01/05 00:08:53;;;;;;;;;;;;;;;19.24;63.66;99758.00;2079590;28;19925;-72
2023/01/05 00:09:53;;;;;;;;;;;;;;;19.23;63.32;99753.63;2079616;28;20070;-72
2023/01/05 00:22:52;;;;;;;;;;;;;;;19.16;63.39;99758.88;2080849;28;20555;-72
2023/01/05 00:23:53;;;;;;;;;;;;;;;19.16;63.34;99763.44;2080085;28;19920;-72
2023/01/05 00:24:54;;;;;;;;;;;;;;;19.16;63.54;99752.66;2081041;28;19931;-72
2023/01/05 00:25:56;;;;;;;;;;;;;;;19.15;63.73;99756.38;2081392;28;19977;-72
2023/01/05 00:26:56;;;;;;;;;;;;;;;19.15;63.53;99756.38;2081320;28;19966;-72
2023/01/05 00:27:58;;;;;;;;;;;;;;;19.13;63.47;99748.50;2081928;28;19929;-72
2023/01/05 00:28:59;;;;;;;;;;;;;;;19.14;63.86;99749.34;2082072;28;20562;-72
2023/01/05 00:30:00;;;;;;;;;;;;;;;19.15;63.77;99756.38;2082327;28;19932;-72
2023/01/05 00:31:02;;;;;;;;;;;;;;;19.14;63.67;99755.56;2081284;28;19924;-72
2023/01/05 00:32:03;;;;;;;;;;;;;;;19.14;63.65;99749.34;2082918;28;19932;-72
2023/01/05 00:33:07;;;;;;;;;;;;;;;19.12;63.33;99746.81;2083304;28;19924;-72
2023/01/05 00:34:08;;;;;;;;;;;;;;;19.12;63.73;99744.13;2082120;28;19932;-72
2023/01/05 00:35:10;;;;;;;;;;;;;;;19.11;63.68;99747.84;2083999;28;20388;-72
2023/01/05 00:36:11;;;;;;;;;;;;;;;19.11;63.40;99753.22;2083826;28;19925;-72
2023/01/05 00:37:12;;;;;;;;;;;;;;;19.12;63.75;99748.69;2083617;28;19928;-72
2023/01/05 00:38:14;;;;;;;;;;;;;;;19.10;63.76;99753.41;2084439;28;19925;-72
2023/01/05 00:39:14;;;;;;;;;;;;;;;19.08;63.66;99756.25;2082406;28;19925;-72
2023/01/05 00:40:17;;;;;;;;;;;;;;;19.09;63.39;99746.34;2083454;28;19924;-72
2023/01/05 00:41:18;;;;;;;;;;;;;;;19.07;63.87;99743.84;2079566;28;19921;-72
2023/01/05 00:42:19;;;;;;;;;;;;;;;19.05;63.81;99739.66;2084155;28;20054;-72
2023/01/05 00:43:21;;;;;;;;;;;;;;;19.05;63.81;99743.16;2084210;28;20038;-72
2023/01/05 00:44:22;;;;;;;;;;;;;;;19.05;63.38;99745.03;2083101;28;19925;-72
2023/01/05 00:45:23;;;;;;;;;;;;;;;19.05;63.65;99742.34;2080149;28;20036;-72
2023/01/05 00:46:24;;;;;;;;;;;;;;;19.04;63.76;99743.38;2083715;28;19973;-72
2023/01/05 00:47:25;;;;;;;;;;;;;;;19.03;63.55;99741.66;2083341;28;20977;-72
2023/01/05 00:48:28;;;;;;;;;;;;;;;19.02;63.40;99740.84;2081347;28;19928;-72
2023/01/05 00:49:28;;;;;;;;;;;;;;;19.02;63.87;99740.00;2079229;28;19925;-72
2023/01/05 00:50:30;;;;;;;;;;;;;;;19.00;63.83;99737.50;2083606;28;20002;-72
2023/01/05 00:51:30;;;;;;;;;;;;;;;19.01;63.67;99738.34;2084384;28;20339;-72
2023/01/05 00:52:32;;;;;;;;;;;;;;;18.98;63.97;99735.00;2083978;28;19970;-72
2023/01/05 00:53:32;;;;;;;;;;;;;;;19.00;63.81;99731.28;2082823;28;20024;-72
2023/01/05 00:54:34;;;;;;;;;;;;;;;18.97;63.79;99730.66;2082664;28;20629;-72
2023/01/05 00:55:34;;;;;;;;;;;;;;;18.96;63.55;99731.63;2083559;28;20376;-72
2023/01/05 00:56:36;;;;;;;;;;;;;;;18.98;63.53;99735.00;2083788;28;19920;-72
2023/01/05 00:57:36;;;;;;;;;;;;;;;18.97;63.72;99738.72;2083126;28;19925;-72
2023/01/05 00:58:38;;;;;;;;;;;;;;;18.96;63.91;99734.31;2083375;28;19931;-72
2023/01/05 00:59:38;;;;;;;;;;;;;;;18.97;63.90;99732.47;2082746;28;19929;-72
2023/01/05 01:00:40;;;;;;;;;;;;;;;18.97;63.73;99737.84;2083009;28;20372;-72
2023/01/05 01:01:40;;;;;;;;;;;;;;;18.97;63.52;99746.78;2075161;28;19928;-72
2023/01/05 01:02:42;;;;;;;;;;;;;;;18.96;63.57;99739.72;2081445;28;20674;-72
2023/01/05 01:03:44;;;;;;;;;;;;;;;18.95;63.83;99732.66;2079049;28;20283;-73
2023/01/05 01:04:45;;;;;;;;;;;;;;;18.95;63.57;99742.59;2082401;28;20745;-72
2023/01/05 01:05:54;;;;;;;;;;;;;;;18.93;63.76;99747.31;2078755;28;19924;-72
2023/01/05 01:06:56;;;;;;;;;;;;;;;18.92;63.77;99740.25;2082771;28;19921;-72
2023/01/05 01:07:56;;;;;;;;;;;;;;;18.92;63.88;99741.09;2082362;28;20821;-72
2023/01/05 01:08:58;;;;;;;;;;;;;;;18.90;63.95;99735.06;2082964;28;19974;-72
2023/01/05 01:09:59;;;;;;;;;;;;;;;18.90;63.73;99721.59;2083164;28;20385;-72
2023/01/05 01:11:03;;;;;;;;;;;;;;;18.90;63.96;99726.16;2082188;28;19924;-72
2023/01/05 01:12:04;;;;;;;;;;;;;;;18.88;63.62;99734.38;2082143;28;19936;-72
2023/01/05 01:13:05;;;;;;;;;;;;;;;18.89;64.05;99724.50;2083139;28;20348;-72
2023/01/05 01:14:06;;;;;;;;;;;;;;;18.88;63.73;99723.63;2083149;28;19924;-72
2023/01/05 01:15:08;;;;;;;;;;;;;;;18.88;63.75;99720.13;2085145;28;19974;-72
2023/01/05 01:16:12;;;;;;;;;;;;;;;18.88;63.89;99718.25;2083686;28;20443;-72
2023/01/05 01:17:13;;;;;;;;;;;;;;;18.86;63.69;99720.31;2084341;28;19998;-72
2023/01/05 01:18:14;;;;;;;;;;;;;;;18.88;63.72;99717.41;2083956;28;19925;-72
2023/01/05 01:19:18;;;;;;;;;;;;;;;18.86;63.92;99728.38;2083220;28;19929;-72
2023/01/05 01:20:19;;;;;;;;;;;;;;;18.82;63.90;99718.16;2073182;28;20393;-72
2023/01/05 01:21:20;;;;;;;;;;;;;;;18.82;64.09;99718.97;2081347;28;20023;-72
2023/01/05 01:22:21;;;;;;;;;;;;;;;18.83;64.12;99712.56;2083536;28;19927;-72
2023/01/05 01:23:23;;;;;;;;;;;;;;;18.82;63.95;99724.34;2083375;28;20391;-72
2023/01/05 01:24:24;;;;;;;;;;;;;;;18.83;63.72;99722.50;2083069;28;20302;-72
2023/01/05 01:25:25;;;;;;;;;;;;;;;18.82;63.91;99710.09;2082529;28;19924;-73
2023/01/05 01:26:26;;;;;;;;;;;;;;;18.80;63.89;99717.47;2081866;28;19921;-72
2023/01/05 01:27:29;;;;;;;;;;;;;;;18.80;63.82;99710.25;2083288;28;19993;-72
2023/01/05 01:28:30;;;;;;;;;;;;;;;18.77;63.96;99715.97;2084208;28;19931;-72
2023/01/05 01:29:31;;;;;;;;;;;;;;;18.79;63.88;99716.66;2082727;28;19924;-72
2023/01/05 01:30:32;;;;;;;;;;;;;;;18.74;64.35;99716.34;2083684;28;19921;-72
2023/01/05 01:31:34;;;;;;;;;;;;;;;18.76;63.90;99719.69;2082650;28;19927;-72
2023/01/05 01:32:34;;;;;;;;;;;;;;;18.75;63.97;99716.19;2084508;28;19929;-72
2023/01/05 01:33:38;;;;;;;;;;;;;;;18.78;63.96;99716.81;2082863;28;19939;-72
2023/01/05 01:34:40;;;;;;;;;;;;;;;18.77;63.97;99718.66;2082479;28;19924;-72
2023/01/05 01:35:42;;;;;;;;;;;;;;;18.74;64.13;99710.97;2083316;28;19924;-72
2023/01/05 01:36:42;;;;;;;;;;;;;;;18.75;64.02;99712.66;2079985;28;19921;-72
2023/01/05 01:37:44;;;;;;;;;;;;;;;18.73;64.23;99709.28;2083472;28;20472;-72
2023/01/05 01:38:44;;;;;;;;;;;;;;;18.74;64.30;99710.97;2083120;28;19929;-72
2023/01/05 01:39:46;;;;;;;;;;;;;;;18.73;64.15;99698.53;2082150;28;20020;-72
2023/01/05 01:40:46;;;;;;;;;;;;;;;18.71;64.01;99711.28;2081654;28;19921;-72
2023/01/05 01:41:48;;;;;;;;;;;;;;;18.72;63.99;99707.59;2082750;28;19925;-72
2023/01/05 01:42:48;;;;;;;;;;;;;;;18.72;64.06;99711.13;2083266;28;19955;-72
2023/01/05 01:43:51;;;;;;;;;;;;;;;18.73;64.17;99714.66;2082460;28;19932;-72
2023/01/05 01:44:55;;;;;;;;;;;;;;;18.72;63.94;99710.28;2083460;28;19932;-72
2023/01/05 01:45:57;;;;;;;;;;;;;;;18.72;63.81;99710.28;2081851;28;19952;-72
2023/01/05 01:46:57;;;;;;;;;;;;;;;18.71;63.95;99711.28;2083694;28;19925;-72
2023/01/05 01:48:00;;;;;;;;;;;;;;;18.69;64.31;99707.94;2080308;28;19927;-72
2023/01/05 01:49:03;;;;;;;;;;;;;;;18.69;64.11;99710.63;2083216;28;20027;-72
2023/01/05 01:50:10;;;;;;;;;;;;;;;18.70;63.97;99709.63;2083145;28;20666;-72
2023/01/05 01:51:13;;;;;;;;;;;;;;;18.67;64.16;99710.00;2083860;28;19971;-72
2023/01/05 01:52:14;;;;;;;;;;;;;;;18.66;64.00;99706.44;2080769;28;19933;-72
2023/01/05 01:53:18;;;;;;;;;;;;;;;18.66;64.29;99709.13;2083681;28;19925;-72
2023/01/05 01:54:19;;;;;;;;;;;;;;;18.67;64.20;99707.31;2082320;28;19932;-73
2023/01/05 01:55:20;;;;;;;;;;;;;;;18.64;64.40;99700.44;2082263;28;19932;-73
2023/01/05 01:56:23;;;;;;;;;;;;;;;18.63;64.33;99700.59;2081765;28;20397;-72
2023/01/05 01:57:26;;;;;;;;;;;;;;;18.65;64.31;99703.94;2080377;28;20020;-72
2023/01/05 01:58:28;;;;;;;;;;;;;;;18.63;64.30;99704.13;2082336;28;19924;-72
2023/01/05 01:59:30;;;;;;;;;;;;;;;18.63;64.11;99697.91;2083039;28;19972;-72
2023/01/05 02:00:31;;;;;;;;;;;;;;;18.62;64.31;99691.72;2083434;28;19925;-72
2023/01/05 02:01:32;;;;;;;;;;;;;;;18.63;63.98;99695.22;2084232;28;19921;-72
2023/01/05 02:02:33;;;;;;;;;;;;;;;18.62;64.08;99693.56;2082997;28;19924;-72
2023/01/05 02:03:35;;;;;;;;;;;;;;;18.63;63.95;99681.78;2080437;28;19921;-72
2023/01/05 02:04:36;;;;;;;;;;;;;;;18.60;64.12;99687.53;2082150;28;19958;-72
2023/01/05 02:05:39;;;;;;;;;;;;;;;18.60;64.12;99687.53;2083044;28;20352;-73
2023/01/05 02:06:40;;;;;;;;;;;;;;;18.61;64.08;99681.13;2084237;28;19978;-72
2023/01/05 02:07:44;;;;;;;;;;;;;;;18.58;64.14;99690.38;2084026;28;19967;-72
2023/01/05 02:08:46;;;;;;;;;;;;;;;18.56;64.38;99686.22;2083140;28;19936;-72
2023/01/05 02:09:46;;;;;;;;;;;;;;;18.57;64.27;99685.19;2083454;28;19921;-72
2023/01/05 02:10:56;;;;;;;;;;;;;;;18.56;64.42;99691.59;2084381;28;20158;-72
2023/01/05 02:12:02;;;;;;;;;;;;;;;18.54;64.19;99679.16;2082723;28;19928;-72
2023/01/05 02:13:09;;;;;;;;;;;;;;;18.53;64.44;99682.88;2082822;28;19920;-72
2023/01/05 02:14:14;;;;;;;;;;;;;;;18.55;64.16;99685.34;2084653;28;19931;-72
2023/01/05 02:15:22;;;;;;;;;;;;;;;18.56;64.16;99686.22;2083551;28;19927;-72
2023/01/05 02:16:29;;;;;;;;;;;;;;;18.56;64.17;99678.16;2083697;28;19956;-72
2023/01/05 02:17:34;;;;;;;;;;;;;;;18.54;64.00;99687.22;2083756;28;19966;-72
2023/01/05 02:18:41;;;;;;;;;;;;;;;18.54;64.40;99684.53;2082827;28;21298;-72
2023/01/05 02:20:06;;;;;;;;;;;;;;;18.53;64.37;99682.88;2083515;28;19936;-72
2023/01/05 02:21:14;;;;;;;;;;;;;;;18.53;64.21;99676.66;2082599;28;20587;-72
2023/01/05 02:22:26;;;;;;;;;;;;;;;18.53;64.23;99680.19;2084078;28;19921;-72
2023/01/05 02:23:35;;;;;;;;;;;;;;;18.51;64.28;99674.13;2082352;28;19927;-72
2023/01/05 02:24:54;;;;;;;;;;;;;;;18.52;64.44;99673.13;2083252;28;19975;-72
2023/01/05 02:26:04;;;;;;;;;;;;;;;18.52;64.15;99675.78;2082515;28;19982;-72
2023/01/05 02:27:21;;;;;;;;;;;;;;;18.50;64.19;99674.34;2082202;28;19982;-72
2023/01/05 02:28:33;;;;;;;;;;;;;;;18.52;64.25;99681.16;2080144;28;20301;-72
2023/01/05 02:29:54;;;;;;;;;;;;;;;18.51;64.39;99676.81;2081852;28;19936;-72
2023/01/05 02:31:00;;;;;;;;;;;;;;;18.48;64.23;99671.81;2082536;28;19925;-72
2023/01/05 02:32:04;;;;;;;;;;;;;;;18.48;64.49;99671.81;2082242;28;19925;-72
2023/01/05 02:33:11;;;;;;;;;;;;;;;18.46;64.21;99668.47;2081864;28;19924;-72
2023/01/05 02:34:16;;;;;;;;;;;;;;;18.48;64.40;99669.13;2081247;28;19975;-72
2023/01/05 02:35:23;;;;;;;;;;;;;;;18.47;64.18;99663.91;2083551;28;19925;-72
2023/01/05 02:36:27;;;;;;;;;;;;;;;18.45;64.29;99668.66;2083826;28;19924;-72
2023/01/05 02:37:32;;;;;;;;;;;;;;;18.45;64.56;99668.66;2082569;28;20404;-72
2023/01/05 02:38:37;;;;;;;;;;;;;;;18.44;64.28;99666.97;2082625;28;19946;-72
2023/01/05 02:39:42;;;;;;;;;;;;;;;18.44;64.24;99662.44;2081205;28;19929;-72
2023/01/05 02:40:45;;;;;;;;;;;;;;;18.43;64.51;99660.75;2082599;28;20309;-72
2023/01/05 02:41:49;;;;;;;;;;;;;;;18.41;64.49;99660.09;2081998;28;19960;-72
2023/01/05 02:42:51;;;;;;;;;;;;;;;18.43;64.32;99662.59;2082286;28;20023;-72
2023/01/05 02:43:52;;;;;;;;;;;;;;;18.42;64.52;99659.09;2082065;28;19924;-72
2023/01/05 02:44:53;;;;;;;;;;;;;;;18.42;64.54;99656.41;2082290;28;20391;-72
2023/01/05 02:45:55;;;;;;;;;;;;;;;18.42;64.40;99658.25;2081857;28;19935;-72
2023/01/05 02:47:02;;;;;;;;;;;;;;;18.41;64.13;99654.72;2083677;28;19921;-72
2023/01/05 02:48:03;;;;;;;;;;;;;;;18.40;64.51;99655.75;2081323;28;19933;-72
2023/01/05 02:49:06;;;;;;;;;;;;;;;18.38;64.37;99651.56;2082706;28;19935;-72
2023/01/05 02:50:09;;;;;;;;;;;;;;;18.38;64.47;99641.66;2082107;28;20490;-72
2023/01/05 02:51:12;;;;;;;;;;;;;;;18.40;64.53;99646.84;2083338;28;20290;-72
2023/01/05 02:52:14;;;;;;;;;;;;;;;18.38;64.40;99652.38;2082310;28;22160;-72
2023/01/05 02:53:18;;;;;;;;;;;;;;;18.38;64.61;99652.38;2081972;28;19920;-72
2023/01/05 02:54:21;;;;;;;;;;;;;;;18.38;64.53;99651.56;2082355;28;20029;-72
2023/01/05 02:55:25;;;;;;;;;;;;;;;18.37;64.51;99656.09;2083299;28;19954;-72
2023/01/05 02:56:30;;;;;;;;;;;;;;;18.38;64.50;99641.66;2081488;28;20602;-72
2023/01/05 02:57:45;;;;;;;;;;;;;;;18.39;64.50;99640.66;2082990;28;19924;-72
2023/01/05 02:58:51;;;;;;;;;;;;;;;18.37;64.17;99639.97;2083344;28;20451;-72
2023/01/05 02:59:53;;;;;;;;;;;;;;;18.37;64.47;99637.28;2082919;28;19925;-72
2023/01/05 03:00:55;;;;;;;;;;;;;;;18.34;64.38;99643.03;2082686;28;19920;-72
2023/01/05 03:01:58;;;;;;;;;;;;;;;18.36;64.32;99638.31;2083148;28;19935;-72
2023/01/05 03:03:05;;;;;;;;;;;;;;;18.37;64.29;99639.16;2081335;28;20420;-72
2023/01/05 03:04:08;;;;;;;;;;;;;;;18.36;64.53;99640.16;2082602;28;19925;-72
2023/01/05 03:05:10;;;;;;;;;;;;;;;18.34;64.30;99632.28;2083175;28;19924;-72
2023/01/05 03:06:16;;;;;;;;;;;;;;;18.35;64.34;99636.63;2082934;28;19921;-72
2023/01/05 03:07:17;;;;;;;;;;;;;;;18.33;64.55;99627.94;2082734;28;19931;-72
2023/01/05 03:08:22;;;;;;;;;;;;;;;18.33;64.54;99627.06;2082670;28;20329;-72
2023/01/05 03:09:25;;;;;;;;;;;;;;;18.32;64.42;99620.88;2081315;28;19924;-72
2023/01/05 03:14:32;;;;;;;;;;;;;;;18.33;64.44;99627.06;2082604;28;20092;-72
2023/01/05 03:15:34;;;;;;;;;;;;;;;18.33;64.55;99625.25;2080478;28;19924;-72
2023/01/05 03:16:36;;;;;;;;;;;;;;;18.31;64.44;99621.91;2082137;28;19931;-72
2023/01/05 03:17:40;;;;;;;;;;;;;;;18.31;64.50;99625.41;2082145;28;19921;-72
2023/01/05 03:20:04;;;;;;;;;;;;;;;18.29;64.50;99618.53;2081762;28;19929;-72
2023/01/05 03:21:04;;;;;;;;;;;;;;;18.29;64.29;99613.19;2082560;28;19924;-72
2023/01/05 03:35:40;;;;;;;;;;;;;;;18.24;64.36;99596.75;2081384;28;20007;-72
2023/01/05 03:36:43;;;;;;;;;;;;;;;18.24;64.53;99597.59;2081927;28;20011;-72
2023/01/05 03:37:47;;;;;;;;;;;;;;;18.24;64.36;99597.59;2081526;28;19928;-72
2023/01/05 03:38:49;;;;;;;;;;;;;;;18.21;64.68;99597.94;2081805;28;20026;-72
2023/01/05 03:39:51;;;;;;;;;;;;;;;18.20;64.68;99601.66;2081305;28;19924;-72
2023/01/05 03:40:52;;;;;;;;;;;;;;;18.21;64.51;99603.31;2082186;28;19924;-72
2023/01/05 03:41:54;;;;;;;;;;;;;;;18.21;64.58;99603.31;2081949;28;19920;-72
2023/01/05 03:42:55;;;;;;;;;;;;;;;18.22;64.53;99605.00;2083515;28;19924;-72
2023/01/05 03:43:57;;;;;;;;;;;;;;;18.21;64.54;99608.69;2081394;28;20352;-72
2023/01/05 03:44:57;;;;;;;;;;;;;;;18.21;64.64;99607.84;2081580;28;19924;-72
2023/01/05 03:45:59;;;;;;;;;;;;;;;18.22;64.41;99604.16;2082984;28;19982;-72
2023/01/05 03:46:59;;;;;;;;;;;;;;;18.20;64.58;99595.44;2082659;28;19977;-72
2023/01/05 03:48:01;;;;;;;;;;;;;;;18.20;64.65;99598.97;2082478;28;20507;-72
2023/01/05 03:49:02;;;;;;;;;;;;;;;18.23;64.40;99605.84;2081455;28;19931;-72
2023/01/05 03:50:05;;;;;;;;;;;;;;;18.19;64.43;99605.38;2079552;28;19936;-72
2023/01/05 03:51:07;;;;;;;;;;;;;;;18.19;64.43;99601.81;2081672;28;19979;-72
2023/01/05 03:52:07;;;;;;;;;;;;;;;18.18;64.72;99608.22;2082389;28;19925;-72
2023/01/05 03:53:08;;;;;;;;;;;;;;;18.18;64.55;99597.47;2082159;28;20396;-72
2023/01/05 03:54:09;;;;;;;;;;;;;;;18.15;64.64;99593.28;2081167;28;19929;-72
2023/01/05 03:55:11;;;;;;;;;;;;;;;18.18;64.62;99602.84;2082155;28;19932;-72
2023/01/05 03:56:11;;;;;;;;;;;;;;;18.16;64.61;99600.31;2082481;28;19921;-72
2023/01/05 03:57:13;;;;;;;;;;;;;;;18.15;64.72;99600.50;2082466;28;19929;-72
2023/01/05 03:58:13;;;;;;;;;;;;;;;18.15;64.63;99592.47;2082291;28;19928;-72
2023/01/05 03:59:15;;;;;;;;;;;;;;;18.12;64.79;99590.97;2081243;28;20374;-72
2023/01/05 04:00:15;;;;;;;;;;;;;;;18.13;64.45;99599.84;2082261;28;20454;-72
2023/01/05 04:01:17;;;;;;;;;;;;;;;18.12;64.73;99590.97;2081930;28;19920;-72
2023/01/05 04:02:17;;;;;;;;;;;;;;;18.15;64.72;99592.47;2082348;28;20609;-72
2023/01/05 04:03:19;;;;;;;;;;;;;;;18.16;64.60;99594.13;2072095;28;19924;-72
2023/01/05 04:04:19;;;;;;;;;;;;;;;18.14;64.45;99588.13;2084175;28;19924;-72
2023/01/05 04:05:22;;;;;;;;;;;;;;;18.12;64.41;99587.44;2083704;28;20723;-72
2023/01/05 04:06:23;;;;;;;;;;;;;;;18.11;64.54;99585.75;2083994;28;19931;-72
2023/01/05 04:07:24;;;;;;;;;;;;;;;18.11;64.48;99585.75;2080944;28;19929;-72
2023/01/05 04:08:25;;;;;;;;;;;;;;;18.11;64.54;99581.25;2080694;28;19920;-72
2023/01/05 04:09:27;;;;;;;;;;;;;;;18.13;64.56;99586.41;2080863;28;20850;-72
2023/01/05 04:10:27;;;;;;;;;;;;;;;18.12;64.44;99587.44;2083677;28;19936;-72
2023/01/05 04:11:29;;;;;;;;;;;;;;;18.11;64.49;99586.63;2082917;28;19927;-72
2023/01/05 04:12:29;;;;;;;;;;;;;;;18.10;64.66;99590.28;2081660;28;19925;-72
2023/01/05 04:13:31;;;;;;;;;;;;;;;18.08;64.64;99585.13;2082232;28;20641;-72
2023/01/05 04:14:31;;;;;;;;;;;;;;;18.11;64.51;99585.75;2083702;28;20317;-72
2023/01/05 04:15:33;;;;;;;;;;;;;;;18.10;64.52;99584.94;2084791;28;19925;-72
2023/01/05 04:16:33;;;;;;;;;;;;;;;18.09;64.55;99586.78;2084158;28;19921;-72
2023/01/05 04:17:35;;;;;;;;;;;;;;;18.09;64.76;99586.78;2082811;28;20043;-72
2023/01/05 04:18:35;;;;;;;;;;;;;;;18.07;64.58;99586.13;2083365;28;19928;-72
2023/01/05 04:19:37;;;;;;;;;;;;;;;18.07;64.87;99588.78;2082769;28;19931;-72
2023/01/05 04:20:39;;;;;;;;;;;;;;;18.06;64.55;99584.44;2083679;28;19920;-72
2023/01/05 04:21:40;;;;;;;;;;;;;;;18.07;64.54;99590.66;2084745;28;20036;-72
2023/01/05 04:22:41;;;;;;;;;;;;;;;18.07;64.75;99585.28;2085313;28;20014;-72
2023/01/05 04:23:42;;;;;;;;;;;;;;;18.06;64.75;99589.81;2082186;28;19925;-72
2023/01/05 04:24:42;;;;;;;;;;;;;;;18.06;64.50;99584.44;2083147;28;19925;-72
2023/01/05 04:25:46;;;;;;;;;;;;;;;18.07;64.75;99588.78;2083459;28;20367;-72
2023/01/05 04:26:46;;;;;;;;;;;;;;;18.06;64.73;99597.03;2083666;28;19975;-72
2023/01/05 04:27:48;;;;;;;;;;;;;;;18.07;64.62;99591.47;2083397;28;20271;-72
2023/01/05 04:28:49;;;;;;;;;;;;;;;18.04;64.71;99589.16;2080725;28;19928;-72
2023/01/05 04:29:50;;;;;;;;;;;;;;;18.03;64.59;99592.03;2082819;28;19978;-72
2023/01/05 04:30:52;;;;;;;;;;;;;;;18.04;64.86;99585.63;2084117;28;20447;-72
2023/01/05 04:31:53;;;;;;;;;;;;;;;18.03;64.67;99579.44;2081676;28;19929;-72
2023/01/05 04:32:54;;;;;;;;;;;;;;;18.03;64.78;99584.81;2083893;28;19930;-72
2023/01/05 04:33:55;;;;;;;;;;;;;;;18.03;64.62;99578.59;2081193;28;19974;-72
2023/01/05 04:34:56;;;;;;;;;;;;;;;18.04;64.49;99580.28;2083924;28;19998;-72
2023/01/05 04:35:58;;;;;;;;;;;;;;;18.07;64.42;99580.75;2083140;28;20094;-73
2023/01/05 04:37:00;;;;;;;;;;;;;;;18.11;64.54;99580.38;2083757;28;19925;-72
2023/01/05 04:38:01;;;;;;;;;;;;;;;18.14;64.40;99569.31;2083421;28;19928;-72
2023/01/05 04:39:02;;;;;;;;;;;;;;;18.21;64.32;99576.47;2082578;28;19925;-72
2023/01/05 04:40:04;;;;;;;;;;;;;;;18.25;64.02;99574.28;2084038;28;19935;-72
2023/01/05 04:41:04;;;;;;;;;;;;;;;18.31;63.86;99577.06;2082684;28;19925;-72
2023/01/05 04:42:06;;;;;;;;;;;;;;;18.36;63.95;99576.53;2084325;28;19921;-73
2023/01/05 04:43:07;;;;;;;;;;;;;;;18.40;63.71;99575.16;2083047;28;19928;-72
2023/01/05 04:44:08;;;;;;;;;;;;;;;18.43;63.78;99574.81;2083466;28;19932;-72
2023/01/05 04:45:09;;;;;;;;;;;;;;;18.50;63.80;99570.38;2081296;28;19931;-72
2023/01/05 04:46:11;;;;;;;;;;;;;;;18.54;63.50;99571.69;2083035;28;20810;-72
2023/01/05 04:47:11;;;;;;;;;;;;;;;18.58;63.53;99569.47;2082548;28;19927;-72
2023/01/05 04:48:13;;;;;;;;;;;;;;;18.60;63.43;99574.69;2083248;28;20015;-72
2023/01/05 04:49:13;;;;;;;;;;;;;;;18.62;63.65;99572.66;2081003;28;20393;-72
2023/01/05 04:50:15;;;;;;;;;;;;;;;18.64;63.51;99567.94;2083628;28;19920;-72
2023/01/05 04:51:17;;;;;;;;;;;;;;;18.66;63.75;99565.88;2082778;28;20260;-72
2023/01/05 04:52:18;;;;;;;;;;;;;;;18.69;63.25;99569.06;2081570;28;20297;-72
2023/01/05 04:53:19;;;;;;;;;;;;;;;18.70;63.53;99565.34;2079987;28;19921;-72
2023/01/05 04:54:20;;;;;;;;;;;;;;;18.73;63.72;99570.34;2081780;28;19947;-72
2023/01/05 04:55:21;;;;;;;;;;;;;;;18.77;63.41;99572.72;2077161;28;19940;-72
2023/01/05 04:56:22;;;;;;;;;;;;;;;18.78;63.24;99566.31;2083334;28;20718;-73
2023/01/05 04:57:23;;;;;;;;;;;;;;;18.82;63.33;99563.09;2082662;28;21002;-73
2023/01/05 04:58:25;;;;;;;;;;;;;;;18.83;63.42;99566.59;2079981;28;20002;-72
2023/01/05 04:59:25;;;;;;;;;;;;;;;18.86;63.38;99567.09;2082838;28;20460;-72
2023/01/05 05:00:27;;;;;;;;;;;;;;;18.87;63.49;99570.59;2083325;28;19931;-72
2023/01/05 05:01:27;;;;;;;;;;;;;;;18.88;63.28;99562.34;2083217;28;20569;-72
2023/01/05 05:02:29;;;;;;;;;;;;;;;18.90;63.33;99562.19;2081212;28;19928;-72
2023/01/05 05:03:30;;;;;;;;;;;;;;;18.91;63.30;99561.16;2082490;28;19928;-72
2023/01/05 05:04:31;;;;;;;;;;;;;;;18.91;63.47;99559.28;2082748;28;19971;-72
2023/01/05 05:05:32;;;;;;;;;;;;;;;18.95;63.21;99568.69;2082290;28;20504;-72
2023/01/05 05:06:35;;;;;;;;;;;;;;;18.97;63.23;99561.28;2083871;28;19931;-72
2023/01/05 05:07:35;;;;;;;;;;;;;;;19.00;63.09;99565.44;2083276;28;19958;-72
2023/01/05 05:08:37;;;;;;;;;;;;;;;18.98;63.12;99568.31;2084742;28;19967;-72
2023/01/05 05:09:37;;;;;;;;;;;;;;;19.02;63.34;99562.56;2083607;28;19970;-72
2023/01/05 05:10:39;;;;;;;;;;;;;;;19.03;63.16;99559.69;2083340;28;19921;-72
2023/01/05 05:11:39;;;;;;;;;;;;;;;19.04;63.25;99566.72;2082622;28;19931;-72
2023/01/05 05:12:41;;;;;;;;;;;;;;;19.07;63.35;99565.53;2081614;28;19956;-72
2023/01/05 05:13:41;;;;;;;;;;;;;;;19.06;63.23;99558.50;2081874;28;20366;-72
2023/01/05 05:14:43;;;;;;;;;;;;;;;19.06;63.10;99563.88;2081676;28;19935;-72
2023/01/05 05:15:44;;;;;;;;;;;;;;;19.08;63.19;99561.81;2083513;28;20693;-72
2023/01/05 05:16:45;;;;;;;;;;;;;;;19.09;63.41;99563.50;2083243;28;19925;-72
2023/01/05 05:17:47;;;;;;;;;;;;;;;19.12;63.11;99572.03;2078500;28;19929;-72
2023/01/05 05:18:48;;;;;;;;;;;;;;;19.14;63.21;99566.47;2082474;28;19959;-72
2023/01/05 05:19:49;;;;;;;;;;;;;;;19.16;63.33;99561.72;2079813;28;19932;-72
2023/01/05 05:20:51;;;;;;;;;;;;;;;19.17;63.34;99558.88;2081822;28;19921;-72
2023/01/05 05:21:53;;;;;;;;;;;;;;;19.19;63.23;99548.78;2081706;28;19924;-72
2023/01/05 05:22:54;;;;;;;;;;;;;;;19.21;63.29;99556.63;2082053;28;19933;-72
2023/01/05 05:23:55;;;;;;;;;;;;;;;19.23;63.23;99560.00;2082700;28;19935;-72
2023/01/05 05:24:56;;;;;;;;;;;;;;;19.27;63.28;99552.38;2083353;28;19931;-72
2023/01/05 05:25:57;;;;;;;;;;;;;;;19.28;63.05;99552.19;2080744;28;19925;-72
2023/01/05 05:26:58;;;;;;;;;;;;;;;19.30;62.99;99557.38;2081984;28;20452;-72
2023/01/05 05:27:59;;;;;;;;;;;;;;;19.30;63.07;99560.91;2083444;28;19925;-72
2023/01/05 05:29:00;;;;;;;;;;;;;;;19.31;63.26;99557.22;2082501;28;19982;-72
2023/01/05 05:30:01;;;;;;;;;;;;;;;19.33;63.22;99549.75;2083131;28;19936;-72
2023/01/05 05:31:02;;;;;;;;;;;;;;;19.37;63.23;99561.84;2083416;28;19921;-72
2023/01/05 05:32:03;;;;;;;;;;;;;;;19.38;62.88;99552.72;2083125;28;19928;-72
2023/01/05 05:33:05;;;;;;;;;;;;;;;19.39;63.02;99554.41;2082101;28;19929;-72
2023/01/05 05:34:05;;;;;;;;;;;;;;;19.41;62.84;99556.91;2082777;28;19935;-72
2023/01/05 05:35:07;;;;;;;;;;;;;;;19.40;62.76;99550.69;2083213;28;19935;-72
2023/01/05 05:36:08;;;;;;;;;;;;;;;19.43;63.03;99552.19;2082765;28;19956;-72
2023/01/05 05:37:11;;;;;;;;;;;;;;;19.42;62.87;99559.44;2082129;28;19921;-72
2023/01/05 05:38:11;;;;;;;;;;;;;;;19.45;63.06;99562.78;2082978;28;21254;-72
2023/01/05 05:39:13;;;;;;;;;;;;;;;19.45;63.04;99560.91;2081798;28;19933;-72
2023/01/05 05:40:14;;;;;;;;;;;;;;;19.46;62.76;99559.88;2083768;28;20504;-72
2023/01/05 05:41:16;;;;;;;;;;;;;;;19.49;62.82;99559.50;2081947;28;19935;-72
2023/01/05 05:42:16;;;;;;;;;;;;;;;19.49;62.74;99567.56;2084159;28;19928;-72
2023/01/05 05:43:18;;;;;;;;;;;;;;;19.50;62.96;99563.03;2082323;28;19928;-72
2023/01/05 05:44:18;;;;;;;;;;;;;;;19.49;62.50;99559.50;2081135;28;19925;-72
2023/01/05 05:45:20;;;;;;;;;;;;;;;19.48;63.00;99565.09;2082040;28;19929;-72
2023/01/05 05:46:20;;;;;;;;;;;;;;;19.48;63.02;99560.53;2082606;28;19974;-72
2023/01/05 05:47:22;;;;;;;;;;;;;;;19.52;62.63;99563.69;2082750;28;20427;-72
2023/01/05 05:48:22;;;;;;;;;;;;;;;19.54;62.68;99561.66;2083547;28;20274;-72
2023/01/05 05:49:24;;;;;;;;;;;;;;;19.54;62.94;99567.03;2081921;28;19934;-72
2023/01/05 05:50:24;;;;;;;;;;;;;;;19.55;62.90;99563.31;2080187;28;19928;-72
2023/01/05 05:51:26;;;;;;;;;;;;;;;19.53;62.86;99566.19;2082301;28;19925;-72
2023/01/05 05:52:28;;;;;;;;;;;;;;;19.53;62.87;99566.19;2083247;28;19936;-72
2023/01/05 05:53:30;;;;;;;;;;;;;;;19.52;62.96;99559.13;2080607;28;19921;-72
2023/01/05 05:54:30;;;;;;;;;;;;;;;19.54;62.93;99561.66;2082421;28;19928;-72
2023/01/05 05:55:33;;;;;;;;;;;;;;;19.55;62.78;99571.38;2081519;28;19929;-72